sensor_id;sensor_type;location;lat;lon;timestamp;pressure;altitude;pressure_sealevel;temperature;humidity
16664;BME280;8445;51.270;9.434;2022-12-07T00:01:11;99387.31;;;3.28;85.26
16664;BME280;8445;51.270;9.434;2022-12-07T00:03:38;99385.53;;;3.29;85.46
16664;BME280;8445;51.270;9.434;2022-12-07T00:06:06;99385.53;;;3.29;85.56
16664;BME280;8445;51.270;9.434;2022-12-07T00:08:34;99385.41;;;3.32;85.71
16664;BME280;8445;51.270;9.434;2022-12-07T00:11:06;99379.25;;;3.33;85.74
16664;BME280;8445;51.270;9.434;2022-12-07T00:13:33;99374.81;;;3.35;85.24
16664;BME280;8445;51.270;9.434;2022-12-07T00:16:04;99377.50;;;3.33;85.81
16664;BME280;8445;51.270;9.434;2022-12-07T00:18:30;99380.91;;;3.35;85.86
16664;BME280;8445;51.270;9.434;2022-12-07T00:21:04;99370.44;;;3.35;85.89
16664;BME280;8445;51.270;9.434;2022-12-07T00:23:30;99363.38;;;3.37;85.14
16664;BME280;8445;51.270;9.434;2022-12-07T00:25:56;99357.22;;;3.38;85.01
16664;BME280;8445;51.270;9.434;2022-12-07T00:28:21;99361.59;;;3.38;85.40
16664;BME280;8445;51.270;9.434;2022-12-07T00:30:47;99352.91;;;3.37;85.31
16664;BME280;8445;51.270;9.434;2022-12-07T00:33:12;99346.69;;;3.40;84.86
16664;BME280;8445;51.270;9.434;2022-12-07T00:35:38;99339.69;;;3.40;84.85
16664;BME280;8445;51.270;9.434;2022-12-07T00:38:04;99343.28;;;3.38;85.07
16664;BME280;8445;51.270;9.434;2022-12-07T00:40:29;99334.66;;;3.36;85.18
16664;BME280;8445;51.270;9.434;2022-12-07T00:42:55;99333.69;;;3.38;85.32
16664;BME280;8445;51.270;9.434;2022-12-07T00:45:20;99333.69;;;3.38;85.26
16664;BME280;8445;51.270;9.434;2022-12-07T00:47:46;99338.91;;;3.38;85.44
16664;BME280;8445;51.270;9.434;2022-12-07T00:50:11;99328.47;;;3.38;85.52
16664;BME280;8445;51.270;9.434;2022-12-07T00:52:36;99326.63;;;3.40;85.48
16664;BME280;8445;51.270;9.434;2022-12-07T00:55:02;99324.69;;;3.44;85.51
16664;BME280;8445;51.270;9.434;2022-12-07T00:57:28;99324.63;;;3.46;85.28
16664;BME280;8445;51.270;9.434;2022-12-07T00:59:55;99315.88;;;3.47;84.85
16664;BME280;8445;51.270;9.434;2022-12-07T01:02:23;99318.50;;;3.47;85.23
16664;BME280;8445;51.270;9.434;2022-12-07T01:04:50;99319.25;;;3.49;85.52
16664;BME280;8445;51.270;9.434;2022-12-07T01:07:16;99321.09;;;3.47;86.02
16664;BME280;8445;51.270;9.434;2022-12-07T01:09:42;99315.88;;;3.47;85.21
16664;BME280;8445;51.270;9.434;2022-12-07T01:12:09;99320.97;;;3.50;85.42
16664;BME280;8445;51.270;9.434;2022-12-07T01:14:35;99325.41;;;3.48;85.23
16664;BME280;8445;51.270;9.434;2022-12-07T01:17:02;99327.44;;;3.41;85.61
16664;BME280;8445;51.270;9.434;2022-12-07T01:19:28;99318.00;;;3.38;85.32
16664;BME280;8445;51.270;9.434;2022-12-07T01:21:56;99316.16;;;3.40;85.65
16664;BME280;8445;51.270;9.434;2022-12-07T01:24:42;99311.75;;;3.41;85.99
16664;BME280;8445;51.270;9.434;2022-12-07T01:27:10;99312.63;;;3.41;85.47
16664;BME280;8445;51.270;9.434;2022-12-07T01:29:40;99308.84;;;3.47;85.68
16664;BME280;8445;51.270;9.434;2022-12-07T01:32:06;99314.03;;;3.49;85.76
16664;BME280;8445;51.270;9.434;2022-12-07T01:34:31;99312.19;;;3.51;85.71
16664;BME280;8445;51.270;9.434;2022-12-07T01:36:57;99305.13;;;3.53;86.19
16664;BME280;8445;51.270;9.434;2022-12-07T01:39:50;99314.44;;;3.59;86.29
16664;BME280;8445;51.270;9.434;2022-12-07T01:42:25;99314.56;;;3.55;86.00
16664;BME280;8445;51.270;9.434;2022-12-07T01:47:50;99307.50;;;3.58;85.94
16664;BME280;8445;51.270;9.434;2022-12-07T01:50:19;99318.78;;;3.58;86.09
16664;BME280;8445;51.270;9.434;2022-12-07T01:52:48;99316.91;;;3.62;86.72
16664;BME280;8445;51.270;9.434;2022-12-07T01:55:15;99316.81;;;3.63;86.11
16664;BME280;8445;51.270;9.434;2022-12-07T01:57:43;99313.28;;;3.64;86.43
16664;BME280;8445;51.270;9.434;2022-12-07T02:00:11;99315.13;;;3.62;86.03
16664;BME280;8445;51.270;9.434;2022-12-07T02:02:57;99310.44;;;3.69;86.72
16664;BME280;8445;51.270;9.434;2022-12-07T02:05:25;99299.13;;;3.68;86.11
16664;BME280;8445;51.270;9.434;2022-12-07T02:07:55;99306.97;;;3.68;85.88
16664;BME280;8445;51.270;9.434;2022-12-07T02:10:29;99299.13;;;3.68;85.90
16664;BME280;8445;51.270;9.434;2022-12-07T02:15:47;99287.59;;;3.73;85.63
16664;BME280;8445;51.270;9.434;2022-12-07T02:23:39;99294.47;;;3.75;85.91
16664;BME280;8445;51.270;9.434;2022-12-07T02:26:27;99290.91;;;3.76;85.96
16664;BME280;8445;51.270;9.434;2022-12-07T02:31:32;99292.66;;;3.76;86.21
16664;BME280;8445;51.270;9.434;2022-12-07T02:34:07;99290.81;;;3.78;87.08
16664;BME280;8445;51.270;9.434;2022-12-07T02:36:39;99289.91;;;3.79;86.41
16664;BME280;8445;51.270;9.434;2022-12-07T02:39:15;99289.91;;;3.79;87.26
16664;BME280;8445;51.270;9.434;2022-12-07T02:41:56;99281.06;;;3.81;87.43
16664;BME280;8445;51.270;9.434;2022-12-07T02:44:25;99287.06;;;3.83;86.77
16664;BME280;8445;51.270;9.434;2022-12-07T02:47:03;99286.06;;;3.86;88.37
16664;BME280;8445;51.270;9.434;2022-12-07T02:49:36;99286.84;;;3.88;87.30
16664;BME280;8445;51.270;9.434;2022-12-07T02:52:06;99274.69;;;3.87;86.93
16664;BME280;8445;51.270;9.434;2022-12-07T02:54:36;99278.84;;;3.91;87.16
16664;BME280;8445;51.270;9.434;2022-12-07T03:02:25;99279.16;;;4.03;87.80
16664;BME280;8445;51.270;9.434;2022-12-07T03:07:51;99278.69;;;4.12;87.14
16664;BME280;8445;51.270;9.434;2022-12-07T03:13:09;99279.06;;;4.22;87.42
16664;BME280;8445;51.270;9.434;2022-12-07T03:15:58;99275.41;;;4.24;88.51
16664;BME280;8445;51.270;9.434;2022-12-07T03:18:31;99273.56;;;4.26;87.56
16664;BME280;8445;51.270;9.434;2022-12-07T03:21:02;99266.31;;;4.32;86.96
16664;BME280;8445;51.270;9.434;2022-12-07T03:23:32;99269.72;;;4.34;86.75
16664;BME280;8445;51.270;9.434;2022-12-07T03:26:01;99263.63;;;4.33;86.36
16664;BME280;8445;51.270;9.434;2022-12-07T03:28:33;99268.00;;;4.33;86.60
16664;BME280;8445;51.270;9.434;2022-12-07T03:31:01;99262.94;;;4.29;86.82
16664;BME280;8445;51.270;9.434;2022-12-07T03:33:33;99259.53;;;4.27;87.38
16664;BME280;8445;51.270;9.434;2022-12-07T03:36:08;99268.41;;;4.25;87.73
16664;BME280;8445;51.270;9.434;2022-12-07T03:39:12;99273.56;;;4.26;88.12
16664;BME280;8445;51.270;9.434;2022-12-07T03:41:34;99277.03;;;4.27;88.05
16664;BME280;8445;51.270;9.434;2022-12-07T03:44:00;99280.50;;;4.27;87.84
16664;BME280;8445;51.270;9.434;2022-12-07T03:52:22;99276.34;;;4.23;87.79
16664;BME280;8445;51.270;9.434;2022-12-07T03:54:56;99280.66;;;4.24;87.42
16664;BME280;8445;51.270;9.434;2022-12-07T03:57:26;99267.81;;;4.20;88.22
16664;BME280;8445;51.270;9.434;2022-12-07T03:59:55;99266.78;;;4.22;87.24
16664;BME280;8445;51.270;9.434;2022-12-07T04:02:22;99265.97;;;4.22;87.85
16664;BME280;8445;51.270;9.434;2022-12-07T04:04:49;99260.56;;;4.25;88.00
16664;BME280;8445;51.270;9.434;2022-12-07T04:07:14;99267.34;;;4.29;87.74
16664;BME280;8445;51.270;9.434;2022-12-07T04:09:40;99257.53;;;4.33;87.80
16664;BME280;8445;51.270;9.434;2022-12-07T04:12:05;99260.25;;;4.31;87.73
16664;BME280;8445;51.270;9.434;2022-12-07T04:14:31;99266.88;;;4.38;87.22
16664;BME280;8445;51.270;9.434;2022-12-07T04:16:58;99266.78;;;4.40;87.14
16664;BME280;8445;51.270;9.434;2022-12-07T04:19:26;99270.16;;;4.42;87.48
16664;BME280;8445;51.270;9.434;2022-12-07T04:21:53;99272.47;;;4.48;87.30
16664;BME280;8445;51.270;9.434;2022-12-07T04:24:19;99260.13;;;4.50;87.50
16664;BME280;8445;51.270;9.434;2022-12-07T04:26:45;99262.66;;;4.52;87.18
16664;BME280;8445;51.270;9.434;2022-12-07T04:29:13;99254.88;;;4.50;87.46
16664;BME280;8445;51.270;9.434;2022-12-07T04:31:41;99261.81;;;4.51;87.25
16664;BME280;8445;51.270;9.434;2022-12-07T04:34:08;99263.50;;;4.52;87.22
16664;BME280;8445;51.270;9.434;2022-12-07T04:36:36;99264.28;;;4.54;87.27
16664;BME280;8445;51.270;9.434;2022-12-07T04:39:03;99263.19;;;4.58;87.58
16664;BME280;8445;51.270;9.434;2022-12-07T04:41:29;99264.88;;;4.59;87.27
16664;BME280;8445;51.270;9.434;2022-12-07T04:44:04;99269.97;;;4.63;87.44
16664;BME280;8445;51.270;9.434;2022-12-07T04:46:32;99262.88;;;4.65;87.11
16664;BME280;8445;51.270;9.434;2022-12-07T04:48:58;99270.72;;;4.65;87.12
16664;BME280;8445;51.270;9.434;2022-12-07T04:51:26;99267.19;;;4.66;87.39
16664;BME280;8445;51.270;9.434;2022-12-07T04:53:53;99262.00;;;4.64;87.24
16664;BME280;8445;51.270;9.434;2022-12-07T04:56:18;99268.94;;;4.65;87.80
16664;BME280;8445;51.270;9.434;2022-12-07T05:01:32;99271.41;;;4.68;87.33
16664;BME280;8445;51.270;9.434;2022-12-07T05:03:58;99267.19;;;4.66;87.51
16664;BME280;8445;51.270;9.434;2022-12-07T05:06:24;99273.19;;;4.68;87.22
16664;BME280;8445;51.270;9.434;2022-12-07T05:08:49;99271.50;;;4.67;87.29
16664;BME280;8445;51.270;9.434;2022-12-07T05:11:16;99265.16;;;4.71;87.44
16664;BME280;8445;51.270;9.434;2022-12-07T05:14:03;99269.63;;;4.69;87.12
16664;BME280;8445;51.270;9.434;2022-12-07T05:16:30;99268.63;;;4.71;86.86
16664;BME280;8445;51.270;9.434;2022-12-07T05:18:55;99273.03;;;4.71;87.00
16664;BME280;8445;51.270;9.434;2022-12-07T05:21:21;99265.31;;;4.68;86.94
16664;BME280;8445;51.270;9.434;2022-12-07T05:23:48;99266.25;;;4.67;87.24
16664;BME280;8445;51.270;9.434;2022-12-07T05:26:21;99266.25;;;4.67;86.61
16664;BME280;8445;51.270;9.434;2022-12-07T05:28:51;99273.50;;;4.62;86.64
16664;BME280;8445;51.270;9.434;2022-12-07T05:31:19;99265.56;;;4.63;86.93
16664;BME280;8445;51.270;9.434;2022-12-07T05:33:47;99269.78;;;4.66;86.79
16664;BME280;8445;51.270;9.434;2022-12-07T05:36:13;99264.72;;;4.63;86.67
16664;BME280;8445;51.270;9.434;2022-12-07T05:38:38;99264.88;;;4.59;86.35
16664;BME280;8445;51.270;9.434;2022-12-07T05:41:06;99261.34;;;4.60;86.37
16664;BME280;8445;51.270;9.434;2022-12-07T05:43:32;99262.66;;;4.52;86.13
16664;BME280;8445;51.270;9.434;2022-12-07T05:45:59;99253.69;;;4.40;86.31
16664;BME280;8445;51.270;9.434;2022-12-07T05:48:25;99263.69;;;4.32;86.14
16664;BME280;8445;51.270;9.434;2022-12-07T05:50:53;99257.84;;;4.26;86.23
16664;BME280;8445;51.270;9.434;2022-12-07T05:53:18;99262.25;;;4.26;86.27
16664;BME280;8445;51.270;9.434;2022-12-07T05:55:44;99268.16;;;4.29;86.50
16664;BME280;8445;51.270;9.434;2022-12-07T05:58:10;99260.00;;;4.36;86.47
16664;BME280;8445;51.270;9.434;2022-12-07T06:00:55;99256.22;;;4.41;86.67
16664;BME280;8445;51.270;9.434;2022-12-07T06:03:21;99274.16;;;4.49;87.16
16664;BME280;8445;51.270;9.434;2022-12-07T06:05:46;99267.81;;;4.53;86.80
16664;BME280;8445;51.270;9.434;2022-12-07T06:08:12;99258.09;;;4.55;87.18
16664;BME280;8445;51.270;9.434;2022-12-07T06:10:42;99260.63;;;4.57;86.66
16664;BME280;8445;51.270;9.434;2022-12-07T06:13:09;99255.50;;;4.55;86.88
16664;BME280;8445;51.270;9.434;2022-12-07T06:15:39;99256.94;;;4.61;86.65
16664;BME280;8445;51.270;9.434;2022-12-07T06:18:06;99259.47;;;4.63;86.76
16664;BME280;8445;51.270;9.434;2022-12-07T06:20:33;99254.41;;;4.59;86.73
16664;BME280;8445;51.270;9.434;2022-12-07T06:22:59;99250.16;;;4.57;86.72
16664;BME280;8445;51.270;9.434;2022-12-07T06:25:24;99251.03;;;4.57;86.57
16664;BME280;8445;51.270;9.434;2022-12-07T06:27:52;99238.25;;;4.51;86.74
16664;BME280;8445;51.270;9.434;2022-12-07T06:30:18;99247.34;;;4.44;86.33
16664;BME280;8445;51.270;9.434;2022-12-07T06:32:43;99259.06;;;4.37;86.71
16664;BME280;8445;51.270;9.434;2022-12-07T06:35:09;99251.53;;;4.30;87.29
16664;BME280;8445;51.270;9.434;2022-12-07T06:37:34;99252.63;;;4.26;86.76
16664;BME280;8445;51.270;9.434;2022-12-07T06:40:00;99250.31;;;4.20;87.38
16664;BME280;8445;51.270;9.434;2022-12-07T06:42:26;99263.09;;;4.26;86.93
16664;BME280;8445;51.270;9.434;2022-12-07T06:44:53;99271.88;;;4.25;86.95
16664;BME280;8445;51.270;9.434;2022-12-07T06:47:21;99273.84;;;4.38;86.80
16664;BME280;8445;51.270;9.434;2022-12-07T06:49:48;99268.56;;;4.39;86.32
16664;BME280;8445;51.270;9.434;2022-12-07T06:52:17;99260.84;;;4.36;85.80
16664;BME280;8445;51.270;9.434;2022-12-07T06:54:47;99263.63;;;4.33;85.99
16664;BME280;8445;51.270;9.434;2022-12-07T06:57:15;99266.41;;;4.30;86.00
16664;BME280;8445;51.270;9.434;2022-12-07T06:59:45;99267.41;;;4.27;85.60
16664;BME280;8445;51.270;9.434;2022-12-07T07:02:14;99267.56;;;4.24;85.63
16664;BME280;8445;51.270;9.434;2022-12-07T07:04:44;99278.03;;;4.24;85.83
16664;BME280;8445;51.270;9.434;2022-12-07T07:07:13;99284.19;;;4.23;85.79
16664;BME280;8445;51.270;9.434;2022-12-07T07:09:42;99275.41;;;4.24;86.06
16664;BME280;8445;51.270;9.434;2022-12-07T07:12:07;99277.19;;;4.24;86.14
16664;BME280;8445;51.270;9.434;2022-12-07T07:14:32;99271.88;;;4.25;85.84
16664;BME280;8445;51.270;9.434;2022-12-07T07:16:58;99273.56;;;4.26;85.77
16664;BME280;8445;51.270;9.434;2022-12-07T07:19:23;99271.97;;;4.24;85.41
16664;BME280;8445;51.270;9.434;2022-12-07T07:21:49;99273.81;;;4.22;85.65
16664;BME280;8445;51.270;9.434;2022-12-07T07:24:14;99279.13;;;4.20;86.43
16664;BME280;8445;51.270;9.434;2022-12-07T07:26:39;99278.66;;;4.29;85.87
16664;BME280;8445;51.270;9.434;2022-12-07T07:29:05;99290.75;;;4.32;85.93
16664;BME280;8445;51.270;9.434;2022-12-07T07:31:30;99277.50;;;4.35;86.31
16664;BME280;8445;51.270;9.434;2022-12-07T07:33:56;99282.47;;;4.40;86.25
16664;BME280;8445;51.270;9.434;2022-12-07T07:36:21;99291.00;;;4.43;86.34
16664;BME280;8445;51.270;9.434;2022-12-07T07:38:47;99289.09;;;4.47;86.36
16664;BME280;8445;51.270;9.434;2022-12-07T07:41:12;99288.00;;;4.51;86.61
16664;BME280;8445;51.270;9.434;2022-12-07T07:43:39;99276.44;;;4.55;86.43
16664;BME280;8445;51.270;9.434;2022-12-07T07:46:09;99294.63;;;4.58;85.96
16664;BME280;8445;51.270;9.434;2022-12-07T07:48:39;99283.38;;;4.56;86.18
16664;BME280;8445;51.270;9.434;2022-12-07T07:51:08;99286.94;;;4.55;86.13
16664;BME280;8445;51.270;9.434;2022-12-07T07:53:38;99288.47;;;4.59;86.50
16664;BME280;8445;51.270;9.434;2022-12-07T07:56:06;99290.75;;;4.66;86.60
16664;BME280;8445;51.270;9.434;2022-12-07T07:58:31;99285.25;;;4.70;86.52
16664;BME280;8445;51.270;9.434;2022-12-07T08:01:05;99293.97;;;4.71;86.61
16664;BME280;8445;51.270;9.434;2022-12-07T08:03:31;99293.56;;;4.79;86.47
16664;BME280;8445;51.270;9.434;2022-12-07T08:05:56;99290.63;;;4.85;86.52
16664;BME280;8445;51.270;9.434;2022-12-07T08:08:22;99292.16;;;4.89;86.84
16664;BME280;8445;51.270;9.434;2022-12-07T08:10:47;99290.13;;;4.94;86.80
16664;BME280;8445;51.270;9.434;2022-12-07T08:13:15;99293.91;;;5.04;87.40
16664;BME280;8445;51.270;9.434;2022-12-07T08:15:43;99290.38;;;5.05;86.98
16664;BME280;8445;51.270;9.434;2022-12-07T08:18:09;99291.72;;;4.97;86.51
16664;BME280;8445;51.270;9.434;2022-12-07T08:20:36;99306.53;;;4.98;86.52
16664;BME280;8445;51.270;9.434;2022-12-07T08:23:02;99294.66;;;4.90;86.60
16664;BME280;8445;51.270;9.434;2022-12-07T08:25:27;99304.22;;;4.92;86.83
16664;BME280;8445;51.270;9.434;2022-12-07T08:27:53;99292.53;;;4.81;86.38
16664;BME280;8445;51.270;9.434;2022-12-07T08:30:19;99297.00;;;4.79;86.93
16664;BME280;8445;51.270;9.434;2022-12-07T08:32:48;99301.16;;;4.83;87.37
16664;BME280;8445;51.270;9.434;2022-12-07T08:35:15;99299.16;;;4.88;87.18
16664;BME280;8445;51.270;9.434;2022-12-07T08:37:40;99289.09;;;4.97;87.55
16664;BME280;8445;51.270;9.434;2022-12-07T08:40:08;99298.16;;;5.07;87.41
16664;BME280;8445;51.270;9.434;2022-12-07T08:42:34;99305.84;;;5.10;87.04
16664;BME280;8445;51.270;9.434;2022-12-07T08:45:13;99310.06;;;5.13;86.78
16664;BME280;8445;51.270;9.434;2022-12-07T08:48:06;99314.00;;;5.22;85.42
16664;BME280;8445;51.270;9.434;2022-12-07T08:50:34;99311.59;;;5.33;86.54
16664;BME280;8445;51.270;9.434;2022-12-07T08:53:02;99308.63;;;5.39;86.89
16664;BME280;8445;51.270;9.434;2022-12-07T08:55:29;99312.28;;;5.37;87.29
16664;BME280;8445;51.270;9.434;2022-12-07T08:57:58;99305.69;;;5.29;86.69
16664;BME280;8445;51.270;9.434;2022-12-07T09:00:24;99300.78;;;5.23;86.70
16664;BME280;8445;51.270;9.434;2022-12-07T09:02:51;99300.78;;;5.23;86.91
16664;BME280;8445;51.270;9.434;2022-12-07T09:05:16;99304.75;;;5.30;87.15
16664;BME280;8445;51.270;9.434;2022-12-07T09:07:44;99308.56;;;5.41;86.96
16664;BME280;8445;51.270;9.434;2022-12-07T09:10:13;99300.53;;;5.44;86.24
16664;BME280;8445;51.270;9.434;2022-12-07T09:12:38;99301.03;;;5.51;86.59
16664;BME280;8445;51.270;9.434;2022-12-07T09:15:05;99296.34;;;5.56;85.88
16664;BME280;8445;51.270;9.434;2022-12-07T09:17:34;99296.00;;;5.62;85.81
16664;BME280;8445;51.270;9.434;2022-12-07T09:20:01;99303.38;;;5.71;86.77
16664;BME280;8445;51.270;9.434;2022-12-07T09:22:30;99307.28;;;5.94;87.06
16664;BME280;8445;51.270;9.434;2022-12-07T09:24:59;99305.75;;;6.06;87.30
16664;BME280;8445;51.270;9.434;2022-12-07T09:27:26;99301.47;;;6.20;87.09
16664;BME280;8445;51.270;9.434;2022-12-07T09:29:52;99304.31;;;6.31;86.09
16664;BME280;8445;51.270;9.434;2022-12-07T09:32:17;99312.97;;;6.62;86.44
16664;BME280;8445;51.270;9.434;2022-12-07T09:34:43;99304.03;;;6.79;86.27
16664;BME280;8445;51.270;9.434;2022-12-07T09:37:09;99303.84;;;6.82;85.29
16664;BME280;8445;51.270;9.434;2022-12-07T09:39:37;99303.59;;;6.87;85.92
16664;BME280;8445;51.270;9.434;2022-12-07T09:42:03;99308.53;;;6.92;85.80
16664;BME280;8445;51.270;9.434;2022-12-07T09:44:32;99305.28;;;7.03;86.80
16664;BME280;8445;51.270;9.434;2022-12-07T09:47:00;99311.66;;;6.99;85.83
16664;BME280;8445;51.270;9.434;2022-12-07T09:49:29;99310.34;;;7.06;87.31
16664;BME280;8445;51.270;9.434;2022-12-07T09:52:17;99316.13;;;7.25;87.76
16664;BME280;8445;51.270;9.434;2022-12-07T09:54:47;99296.50;;;7.59;88.63
16664;BME280;8445;51.270;9.434;2022-12-07T09:57:13;99297.44;;;7.98;88.22
16664;BME280;8445;51.270;9.434;2022-12-07T09:59:39;99294.94;;;8.35;88.60
16664;BME280;8445;51.270;9.434;2022-12-07T10:04:48;99292.72;;;8.16;86.85
16664;BME280;8445;51.270;9.434;2022-12-07T10:07:13;99277.50;;;7.94;84.78
16664;BME280;8445;51.270;9.434;2022-12-07T10:09:39;99283.91;;;7.77;86.12
16664;BME280;8445;51.270;9.434;2022-12-07T10:12:10;99287.84;;;7.56;85.75
16664;BME280;8445;51.270;9.434;2022-12-07T10:14:59;99287.22;;;7.38;85.37
16664;BME280;8445;51.270;9.434;2022-12-07T10:20:20;99291.81;;;7.07;84.56
16664;BME280;8445;51.270;9.434;2022-12-07T10:23:04;99292.13;;;6.88;85.03
16664;BME280;8445;51.270;9.434;2022-12-07T10:25:35;99296.72;;;6.85;85.28
16664;BME280;8445;51.270;9.434;2022-12-07T10:30:34;99292.31;;;6.85;88.40
16664;BME280;8445;51.270;9.434;2022-12-07T10:33:35;99288.06;;;6.97;85.95
16664;BME280;8445;51.270;9.434;2022-12-07T10:36:27;99281.78;;;7.00;84.18
16664;BME280;8445;51.270;9.434;2022-12-07T10:39:11;99275.19;;;7.07;86.89
16664;BME280;8445;51.270;9.434;2022-12-07T10:44:30;99279.91;;;6.87;85.19
16664;BME280;8445;51.270;9.434;2022-12-07T10:50:01;99268.28;;;6.77;84.80
16664;BME280;8445;51.270;9.434;2022-12-07T10:52:32;99270.16;;;6.89;85.54
16664;BME280;8445;51.270;9.434;2022-12-07T10:58:21;99273.63;;;7.32;85.35
16664;BME280;8445;51.270;9.434;2022-12-07T11:01:18;99262.00;;;7.21;78.14
16664;BME280;8445;51.270;9.434;2022-12-07T11:07:00;99263.72;;;7.08;83.86
16664;BME280;8445;51.270;9.434;2022-12-07T11:12:47;99246.84;;;6.97;82.83
16664;BME280;8445;51.270;9.434;2022-12-07T11:15:14;99256.72;;;7.21;83.79
16664;BME280;8445;51.270;9.434;2022-12-07T11:18:11;99253.88;;;7.39;80.09
16664;BME280;8445;51.270;9.434;2022-12-07T11:21:03;99267.34;;;7.34;78.97
16664;BME280;8445;51.270;9.434;2022-12-07T11:23:49;99241.47;;;7.41;82.14
16664;BME280;8445;51.270;9.434;2022-12-07T11:26:26;99243.19;;;7.68;86.56
16664;BME280;8445;51.270;9.434;2022-12-07T11:37:36;99242.44;;;7.25;82.86
16664;BME280;8445;51.270;9.434;2022-12-07T11:40:17;99242.16;;;7.03;76.14
16664;BME280;8445;51.270;9.434;2022-12-07T11:43:14;99240.84;;;6.95;81.29
16664;BME280;8445;51.270;9.434;2022-12-07T11:45:44;99242.94;;;6.61;81.43
16664;BME280;8445;51.270;9.434;2022-12-07T11:48:19;99229.16;;;6.43;81.02
16664;BME280;8445;51.270;9.434;2022-12-07T11:50:51;99228.69;;;6.36;82.33
16664;BME280;8445;51.270;9.434;2022-12-07T11:53:42;99223.91;;;6.43;82.72
16664;BME280;8445;51.270;9.434;2022-12-07T11:56:13;99224.47;;;6.63;84.03
16664;BME280;8445;51.270;9.434;2022-12-07T11:58:54;99222.66;;;6.78;78.67
16664;BME280;8445;51.270;9.434;2022-12-07T12:06:36;99219.63;;;6.84;81.74
16664;BME280;8445;51.270;9.434;2022-12-07T12:09:17;99229.38;;;6.96;82.32
16664;BME280;8445;51.270;9.434;2022-12-07T12:20:03;99214.78;;;7.33;82.01
16664;BME280;8445;51.270;9.434;2022-12-07T12:22:38;99198.81;;;7.36;78.64
16664;BME280;8445;51.270;9.434;2022-12-07T12:25:07;99208.06;;;7.41;80.76
16664;BME280;8445;51.270;9.434;2022-12-07T12:27:45;99207.22;;;7.28;78.74
16664;BME280;8445;51.270;9.434;2022-12-07T12:30:37;99202.69;;;7.30;78.90
16664;BME280;8445;51.270;9.434;2022-12-07T12:33:11;99202.94;;;7.40;81.80
16664;BME280;8445;51.270;9.434;2022-12-07T12:35:38;99200.72;;;7.47;81.57
16664;BME280;8445;51.270;9.434;2022-12-07T12:38:28;99201.13;;;7.40;80.57
16664;BME280;8445;51.270;9.434;2022-12-07T12:40:55;99197.16;;;7.48;82.50
16664;BME280;8445;51.270;9.434;2022-12-07T12:43:44;99200.84;;;7.45;79.39
16664;BME280;8445;51.270;9.434;2022-12-07T12:49:35;99212.78;;;7.09;77.76
16664;BME280;8445;51.270;9.434;2022-12-07T12:54:59;99215.91;;;6.74;80.44
16664;BME280;8445;51.270;9.434;2022-12-07T12:57:31;99208.03;;;6.59;79.65
16664;BME280;8445;51.270;9.434;2022-12-07T12:59:58;99209.56;;;6.34;80.48
16664;BME280;8445;51.270;9.434;2022-12-07T13:02:35;99200.81;;;6.19;80.56
16664;BME280;8445;51.270;9.434;2022-12-07T13:05:03;99210.84;;;6.13;80.54
16664;BME280;8445;51.270;9.434;2022-12-07T13:20:59;99195.81;;;6.00;80.44
16664;BME280;8445;51.270;9.434;2022-12-07T13:23:29;99185.00;;;5.90;79.88
16664;BME280;8445;51.270;9.434;2022-12-07T13:28:22;99184.16;;;5.90;79.78
16664;BME280;8445;51.270;9.434;2022-12-07T13:31:02;99183.31;;;5.89;79.86
16664;BME280;8445;51.270;9.434;2022-12-07T13:33:29;99188.28;;;5.94;80.92
16664;BME280;8445;51.270;9.434;2022-12-07T13:35:56;99182.69;;;6.00;80.83
16664;BME280;8445;51.270;9.434;2022-12-07T13:38:33;99177.94;;;6.07;80.60
16664;BME280;8445;51.270;9.434;2022-12-07T13:41:12;99177.81;;;6.08;79.68
16664;BME280;8445;51.270;9.434;2022-12-07T13:43:51;99171.06;;;6.04;79.17
16664;BME280;8445;51.270;9.434;2022-12-07T13:46:19;99173.06;;;6.01;80.40
16664;BME280;8445;51.270;9.434;2022-12-07T13:48:49;99168.78;;;5.98;80.42
16664;BME280;8445;51.270;9.434;2022-12-07T13:51:24;99166.00;;;6.01;80.42
16664;BME280;8445;51.270;9.434;2022-12-07T13:53:53;99167.50;;;6.05;80.52
16664;BME280;8445;51.270;9.434;2022-12-07T13:56:22;99165.63;;;6.07;80.62
16664;BME280;8445;51.270;9.434;2022-12-07T13:58:51;99165.38;;;6.12;80.65
16664;BME280;8445;51.270;9.434;2022-12-07T14:01:16;99167.13;;;6.12;80.46
16664;BME280;8445;51.270;9.434;2022-12-07T14:03:42;99172.38;;;6.12;80.03
16664;BME280;8445;51.270;9.434;2022-12-07T14:06:25;99165.38;;;6.12;79.47
16664;BME280;8445;51.270;9.434;2022-12-07T14:09:18;99161.88;;;6.12;79.39
16664;BME280;8445;51.270;9.434;2022-12-07T14:11:46;99163.88;;;6.08;79.66
16664;BME280;8445;51.270;9.434;2022-12-07T14:14:19;99170.06;;;6.07;79.71
16664;BME280;8445;51.270;9.434;2022-12-07T14:17:01;99162.38;;;6.04;79.41
16664;BME280;8445;51.270;9.434;2022-12-07T14:19:56;99166.16;;;5.98;78.71
16664;BME280;8445;51.270;9.434;2022-12-07T14:22:23;99168.59;;;5.87;78.63
16664;BME280;8445;51.270;9.434;2022-12-07T14:24:49;99164.84;;;5.76;78.64
16664;BME280;8445;51.270;9.434;2022-12-07T14:27:21;99167.06;;;5.68;77.76
16664;BME280;8445;51.270;9.434;2022-12-07T14:29:47;99166.13;;;5.69;78.33
16664;BME280;8445;51.270;9.434;2022-12-07T14:32:27;99167.50;;;5.60;76.75
16664;BME280;8445;51.270;9.434;2022-12-07T14:35:03;99161.13;;;5.50;78.50
16664;BME280;8445;51.270;9.434;2022-12-07T14:37:29;99159.91;;;5.56;78.13
16664;BME280;8445;51.270;9.434;2022-12-07T14:39:55;99154.28;;;5.47;78.13
16664;BME280;8445;51.270;9.434;2022-12-07T14:42:23;99153.88;;;5.39;78.53
16664;BME280;8445;51.270;9.434;2022-12-07T14:44:49;99143.06;;;5.29;78.01
16664;BME280;8445;51.270;9.434;2022-12-07T14:47:15;99145.22;;;5.23;77.72
16664;BME280;8445;51.270;9.434;2022-12-07T14:49:40;99140.09;;;5.05;77.72
16664;BME280;8445;51.270;9.434;2022-12-07T14:52:13;99151.59;;;5.02;78.02
16664;BME280;8445;51.270;9.434;2022-12-07T14:54:41;99147.88;;;4.90;77.99
16664;BME280;8445;51.270;9.434;2022-12-07T14:57:08;99148.56;;;4.78;78.02
16664;BME280;8445;51.270;9.434;2022-12-07T14:59:34;99147.59;;;4.65;77.48
16664;BME280;8445;51.270;9.434;2022-12-07T15:02:00;99139.28;;;4.56;77.78
16664;BME280;8445;51.270;9.434;2022-12-07T15:04:25;99142.91;;;4.54;77.54
16664;BME280;8445;51.270;9.434;2022-12-07T15:06:58;99152.47;;;4.39;77.68
16664;BME280;8445;51.270;9.434;2022-12-07T15:09:24;99150.34;;;4.29;77.70
16664;BME280;8445;51.270;9.434;2022-12-07T15:11:49;99147.28;;;4.21;77.98
16664;BME280;8445;51.270;9.434;2022-12-07T15:14:15;99147.53;;;4.17;77.99
16664;BME280;8445;51.270;9.434;2022-12-07T15:16:42;99145.91;;;4.14;77.87
16664;BME280;8445;51.270;9.434;2022-12-07T15:19:19;99147.03;;;4.10;77.87